Time;durP1;ratioP1;P1;durP2;ratioP2;P2;SDS_P1;SDS_P2;PMS_P1;PMS_P2;Temp;Humidity;BMP_temperature;BMP_pressure;BME280_temperature;BME280_humidity;BME280_pressure;Samples;Min_cycle;Max_cycle;Signal;HPM_P1;HPM_P2
2022/11/11 00:00:10;;;;;;;2.70;2.03;;;13.70;77.30;;;;;;5030152;28;20808;-70
2022/11/11 00:02:58;;;;;;;2.63;1.90;;;13.60;77.20;;;;;;5023151;28;20479;-70
2022/11/11 00:05:45;;;;;;;2.37;1.67;;;13.60;77.30;;;;;;5025572;28;20473;-70
2022/11/11 00:08:32;;;;;;;1.83;1.30;;;13.60;77.30;;;;;;5023685;28;20444;-70
2022/11/11 00:11:20;;;;;;;3.13;1.40;;;13.60;77.30;;;;;;5020367;28;20468;-70
2022/11/11 00:14:06;;;;;;;1.60;1.50;;;13.60;77.20;;;;;;5018061;28;20460;-70
2022/11/11 00:26:05;;;;;;;1.47;1.27;;;13.60;77.20;;;;;;5028316;28;20993;-70
2022/11/11 00:29:12;;;;;;;5.23;1.60;;;13.60;77.30;;;;;;5029176;28;20459;-70
2022/11/11 00:38:44;;;;;;;0.90;0.70;;;13.60;77.60;;;;;;5026069;28;20467;-70
2022/11/11 00:41:19;;;;;;;1.03;0.90;;;13.60;77.80;;;;;;5024678;28;20476;-70
2022/11/11 00:44:06;;;;;;;1.30;0.93;;;13.60;77.90;;;;;;5024281;28;20450;-70
2022/11/11 00:53:05;;;;;;;1.07;0.93;;;13.60;77.60;;;;;;5020896;28;20567;-70
2022/11/11 00:55:52;;;;;;;1.43;1.13;;;13.60;77.80;;;;;;5020153;28;20476;-70
2022/11/11 00:58:39;;;;;;;4.53;1.63;;;13.60;77.20;;;;;;5028607;28;20823;-70
2022/11/11 01:01:26;;;;;;;1.40;1.30;;;13.60;77.00;;;;;;5027112;28;20476;-70
2022/11/11 01:04:14;;;;;;;3.03;1.73;;;13.60;76.30;;;;;;5024062;28;20479;-70
2022/11/11 01:07:02;;;;;;;1.47;1.37;;;13.60;76.60;;;;;;5028315;28;20545;-70
2022/11/11 01:09:50;;;;;;;2.87;0.90;;;13.60;76.80;;;;;;5022796;28;20467;-70
2022/11/11 01:12:37;;;;;;;1.53;1.23;;;13.50;76.80;;;;;;5027654;28;20431;-69
2022/11/11 01:15:24;;;;;;;1.80;1.70;;;13.50;77.20;;;;;;5029516;28;20475;-69
2022/11/11 01:18:13;;;;;;;3.40;1.50;;;13.50;76.60;;;;;;5024435;28;20575;-69
2022/11/11 01:21:02;;;;;;;1.47;1.37;;;13.50;76.80;;;;;;5021190;28;20529;-69
2022/11/11 01:23:52;;;;;;;1.50;1.40;;;13.50;77.30;;;;;;5024160;28;20503;-70
2022/11/11 01:26:39;;;;;;;3.77;1.43;;;13.50;77.30;;;;;;5027067;28;20467;-70
2022/11/11 01:29:26;;;;;;;1.50;1.13;;;13.50;77.10;;;;;;5019922;28;20455;-71
2022/11/11 01:32:13;;;;;;;1.90;1.50;;;13.50;77.50;;;;;;5024306;28;20456;-71
2022/11/11 01:35:00;;;;;;;1.20;1.10;;;13.50;77.50;;;;;;5022415;28;20432;-70
2022/11/11 01:37:47;;;;;;;2.50;1.47;;;13.50;77.30;;;;;;5020462;28;20436;-70
2022/11/11 01:40:43;;;;;;;1.67;0.80;;;13.50;77.00;;;;;;5025627;28;20502;-70
2022/11/11 01:43:30;;;;;;;2.00;1.10;;;13.60;77.40;;;;;;5027459;28;20464;-71
2022/11/11 01:46:25;;;;;;;2.77;1.20;;;13.60;77.60;;;;;;5035196;28;20472;-71
2022/11/11 01:49:23;;;;;;;1.30;1.20;;;13.60;77.40;;;;;;5023458;28;20834;-71
2022/11/11 01:52:16;;;;;;;1.70;1.60;;;13.60;77.50;;;;;;5027370;28;20985;-70
2022/11/11 01:55:09;;;;;;;1.20;1.00;;;13.50;77.30;;;;;;5023212;28;20556;-70
2022/11/11 01:58:01;;;;;;;1.33;1.10;;;13.50;77.00;;;;;;5027980;28;20951;-70
2022/11/11 02:00:49;;;;;;;1.47;1.37;;;13.50;77.40;;;;;;5020150;28;20494;-70
2022/11/11 02:03:40;;;;;;;1.13;1.03;;;13.50;77.40;;;;;;5025659;28;20482;-70
2022/11/11 02:06:27;;;;;;;1.20;1.10;;;13.50;77.60;;;;;;5034179;28;20696;-70
2022/11/11 02:09:15;;;;;;;1.30;1.10;;;13.60;77.50;;;;;;5021969;28;20471;-70
2022/11/11 02:15:13;;;;;;;1.10;0.87;;;13.60;77.70;;;;;;5023045;28;20528;-70
2022/11/11 02:18:00;;;;;;;1.70;0.97;;;13.50;77.50;;;;;;5025927;28;20462;-70
2022/11/11 02:20:49;;;;;;;1.20;1.10;;;13.60;77.60;;;;;;5025626;28;20543;-70
2022/11/11 02:23:43;;;;;;;1.83;1.43;;;13.50;77.50;;;;;;5022877;28;20504;-70
2022/11/11 02:26:34;;;;;;;1.70;1.10;;;13.50;77.40;;;;;;5015453;28;20552;-70
2022/11/11 02:29:23;;;;;;;1.17;0.93;;;13.50;77.40;;;;;;5013295;28;20443;-70
2022/11/11 02:32:10;;;;;;;1.57;1.40;;;13.60;78.50;;;;;;5024983;28;20455;-70
2022/11/11 02:34:57;;;;;;;1.10;1.00;;;13.50;76.80;;;;;;5019870;28;20472;-70
2022/11/11 02:37:47;;;;;;;1.40;1.07;;;13.50;77.10;;;;;;5023966;28;20957;-70
2022/11/11 02:40:38;;;;;;;1.20;1.10;;;13.50;76.70;;;;;;5016761;28;20556;-70
2022/11/11 02:43:26;;;;;;;0.73;0.70;;;13.50;77.30;;;;;;5001462;28;20469;-70
2022/11/11 02:46:13;;;;;;;2.20;1.33;;;13.50;77.20;;;;;;5026872;28;20468;-70
2022/11/11 02:49:01;;;;;;;1.10;1.00;;;13.50;77.10;;;;;;5021296;28;20438;-70
2022/11/11 02:51:48;;;;;;;1.23;1.07;;;13.50;77.30;;;;;;5027227;28;20955;-70
2022/11/11 02:54:36;;;;;;;1.57;1.07;;;13.50;77.20;;;;;;5033299;23;20819;31
2022/11/11 02:57:24;;;;;;;0.87;0.73;;;13.50;77.30;;;;;;4985042;28;21168;-70
2022/11/11 03:00:14;;;;;;;1.83;1.00;;;13.50;77.30;;;;;;4982494;28;20476;-69
2022/11/11 03:03:01;;;;;;;0.90;0.90;;;13.50;77.30;;;;;;4985702;28;20834;-69
2022/11/11 03:05:48;;;;;;;1.43;1.20;;;13.50;77.50;;;;;;4964281;28;20458;-69
2022/11/11 03:08:35;;;;;;;1.40;0.90;;;13.40;76.60;;;;;;4964905;28;20465;-70
2022/11/11 03:11:27;;;;;;;1.07;0.90;;;13.40;77.00;;;;;;4964963;28;20458;-69
2022/11/11 03:14:14;;;;;;;2.90;0.93;;;13.40;77.10;;;;;;4974366;28;20836;-68
2022/11/11 03:23:15;;;;;;;1.43;1.30;;;13.40;77.20;;;;;;4990746;28;21109;-69
2022/11/11 03:26:02;;;;;;;1.20;1.10;;;13.40;76.80;;;;;;4974025;28;20602;-70
2022/11/11 03:28:49;;;;;;;2.00;0.93;;;13.40;77.10;;;;;;4959622;28;20445;-69
2022/11/11 03:31:37;;;;;;;1.00;0.83;;;13.40;76.30;;;;;;4972050;28;20930;-69
2022/11/11 03:34:25;;;;;;;0.93;0.80;;;13.40;77.00;;;;;;4981334;28;20477;-69
2022/11/11 03:40:16;;;;;;;1.90;1.57;;;13.40;76.90;;;;;;4973897;28;20466;-70
2022/11/11 03:43:04;;;;;;;1.10;1.00;;;13.40;77.10;;;;;;4969304;28;20501;-69
2022/11/11 03:45:51;;;;;;;1.10;1.00;;;13.40;77.20;;;;;;4981902;28;20861;-69
2022/11/11 03:48:39;;;;;;;1.43;0.90;;;13.40;76.70;;;;;;4976156;28;20533;-69
2022/11/11 03:51:28;;;;;;;1.07;0.70;;;13.40;76.80;;;;;;4972394;28;20474;-69
2022/11/11 03:54:15;;;;;;;1.10;0.80;;;13.40;75.70;;;;;;4972908;28;20801;-68
2022/11/11 04:00:08;;;;;;;1.00;0.80;;;13.30;76.50;;;;;;4973003;28;20863;-69
2022/11/11 04:12:22;;;;;;;1.10;0.90;;;13.40;76.40;;;;;;4967755;28;20539;-69
2022/11/11 04:18:14;;;;;;;1.10;1.00;;;13.40;76.80;;;;;;4970583;28;20513;-69
2022/11/11 04:27:10;;;;;;;3.17;0.90;;;13.30;75.90;;;;;;4970775;28;21157;-71
2022/11/11 04:29:56;;;;;;;1.17;1.07;;;13.30;76.10;;;;;;4970799;28;20839;-69
2022/11/11 04:32:46;;;;;;;1.20;1.10;;;13.30;76.50;;;;;;4957807;28;21000;-69
2022/11/11 04:35:33;;;;;;;1.70;0.90;;;13.30;76.30;;;;;;4970401;28;20475;-69
2022/11/11 04:41:24;;;;;;;1.13;1.03;;;13.30;76.00;;;;;;4969639;28;20470;-69
2022/11/11 04:47:38;;;;;;;4.83;0.90;;;13.20;76.20;;;;;;4969582;28;20505;-69
2022/11/11 04:50:27;;;;;;;1.13;1.03;;;13.20;76.40;;;;;;4966504;28;20491;-69
2022/11/11 04:53:15;;;;;;;1.10;1.00;;;13.20;76.10;;;;;;4960588;28;20451;-70
2022/11/11 04:59:19;;;;;;;1.90;1.00;;;13.20;76.40;;;;;;4936322;28;20443;-69
2022/11/11 05:05:12;;;;;;;1.07;0.80;;;13.20;75.70;;;;;;4953646;28;20474;-68
2022/11/11 05:11:04;;;;;;;1.30;1.10;;;13.20;76.10;;;;;;4983502;28;20615;-70
2022/11/11 05:23:09;;;;;;;1.10;0.90;;;13.20;75.70;;;;;;4969308;28;20469;-69
2022/11/11 05:25:55;;;;;;;1.00;0.80;;;13.20;76.10;;;;;;4976336;28;20458;-70
2022/11/11 05:28:41;;;;;;;1.00;0.90;;;13.10;76.30;;;;;;4981964;28;20434;-69
2022/11/11 05:31:30;;;;;;;0.93;0.83;;;13.10;76.00;;;;;;4988118;28;20477;-69
2022/11/11 05:34:16;;;;;;;2.50;1.10;;;13.10;76.00;;;;;;4988948;28;20929;-67
2022/11/11 05:37:05;;;;;;;2.73;1.60;;;13.10;75.90;;;;;;4978934;28;20454;-70
2022/11/11 05:39:52;;;;;;;0.90;0.73;;;13.10;75.50;;;;;;4980976;28;20481;-69
2022/11/11 05:42:42;;;;;;;2.37;1.27;;;13.10;75.60;;;;;;4988809;28;20458;-69
2022/11/11 05:45:36;;;;;;;1.37;1.10;;;13.10;76.00;;;;;;4987415;28;20462;-70
2022/11/11 05:48:23;;;;;;;1.50;0.80;;;13.10;76.30;;;;;;4987614;28;20481;-70
2022/11/11 05:51:26;;;;;;;2.47;1.30;;;13.10;76.30;;;;;;4984208;28;20466;-67
2022/11/11 05:54:15;;;;;;;1.23;1.13;;;13.10;75.80;;;;;;4972033;28;21054;-68
2022/11/11 05:57:02;;;;;;;1.30;1.10;;;13.00;75.90;;;;;;4950237;28;20451;-69
2022/11/11 05:59:50;;;;;;;1.17;1.07;;;13.00;75.70;;;;;;4957405;28;20463;-70
2022/11/11 06:02:37;;;;;;;1.87;1.20;;;13.10;75.70;;;;;;4957028;28;20453;-69
2022/11/11 06:05:24;;;;;;;1.37;0.93;;;13.00;75.90;;;;;;4965069;28;20490;-70
2022/11/11 06:08:11;;;;;;;1.53;1.43;;;13.00;75.80;;;;;;4955610;28;20435;-69
2022/11/11 06:10:59;;;;;;;1.30;1.20;;;13.00;76.00;;;;;;4966859;28;20877;-70
2022/11/11 06:13:46;;;;;;;1.40;1.00;;;13.00;75.60;;;;;;4956539;28;20819;-69
2022/11/11 06:16:34;;;;;;;2.17;0.73;;;13.00;76.00;;;;;;4966902;28;20584;-68
2022/11/11 06:19:20;;;;;;;1.53;1.20;;;13.10;76.10;;;;;;4952737;28;20463;-69
2022/11/11 06:22:07;;;;;;;1.10;0.90;;;13.10;75.90;;;;;;4964356;28;20640;-69
2022/11/11 06:26:11;;;;;;;2.10;1.13;;;13.00;76.00;;;;;;4956612;28;20550;-69
2022/11/11 06:28:03;;;;;;;1.30;1.10;;;13.00;76.00;;;;;;4962957;28;20443;-69
2022/11/11 06:30:50;;;;;;;0.97;0.87;;;13.10;76.10;;;;;;4959443;28;20569;-70
2022/11/11 06:33:39;;;;;;;1.23;0.80;;;13.00;76.30;;;;;;4956874;28;20455;-69
2022/11/11 06:36:26;;;;;;;1.60;0.90;;;13.00;76.20;;;;;;4968102;28;20470;-70
2022/11/11 06:39:13;;;;;;;0.80;0.80;;;13.00;76.30;;;;;;4996442;28;20475;-69
2022/11/11 06:42:00;;;;;;;1.20;1.00;;;13.10;76.20;;;;;;4986259;28;20828;-68
2022/11/11 06:44:48;;;;;;;0.73;0.73;;;13.00;76.30;;;;;;4981100;28;20465;-68
2022/11/11 06:47:35;;;;;;;0.93;0.83;;;13.00;76.20;;;;;;4980983;28;20442;-69
2022/11/11 06:50:23;;;;;;;1.10;1.00;;;13.00;75.90;;;;;;4982244;28;20462;-70
2022/11/11 06:53:12;;;;;;;1.10;0.73;;;13.00;76.10;;;;;;4966567;28;20537;-70
2022/11/11 06:56:00;;;;;;;0.80;0.80;;;13.00;76.30;;;;;;4960355;28;20875;-68
2022/11/11 06:58:46;;;;;;;1.70;1.40;;;13.00;76.20;;;;;;4963095;28;20460;-68
2022/11/11 07:01:35;;;;;;;0.90;0.70;;;13.00;76.10;;;;;;4967345;28;20483;-69
2022/11/11 07:04:23;;;;;;;1.47;0.80;;;13.00;75.90;;;;;;4968600;28;20997;-69
2022/11/11 07:07:10;;;;;;;0.90;0.87;;;13.00;76.00;;;;;;4968607;28;21092;-69
2022/11/11 07:09:57;;;;;;;0.77;0.77;;;13.00;75.40;;;;;;4971044;28;21011;-69
2022/11/11 07:12:44;;;;;;;0.77;0.60;;;13.00;75.30;;;;;;4964247;28;20442;-69
2022/11/11 07:15:32;;;;;;;1.00;0.80;;;13.00;75.50;;;;;;4958979;28;20477;-68
2022/11/11 07:18:20;;;;;;;1.47;1.00;;;13.00;75.60;;;;;;4967818;28;20586;-68
2022/11/11 07:21:08;;;;;;;1.00;0.90;;;13.00;75.30;;;;;;4962713;28;20470;-68
2022/11/11 07:23:55;;;;;;;1.10;1.00;;;12.90;75.10;;;;;;4964005;28;20545;-68
2022/11/11 07:26:42;;;;;;;1.33;1.00;;;12.90;75.20;;;;;;4967144;28;20479;-69
2022/11/11 07:29:30;;;;;;;1.47;1.00;;;12.90;75.50;;;;;;4969299;28;20468;-69
2022/11/11 07:32:17;;;;;;;1.37;0.90;;;12.90;75.40;;;;;;4986689;28;21028;-68
2022/11/11 07:35:05;;;;;;;0.93;0.90;;;12.90;75.90;;;;;;4974287;28;20465;-69
2022/11/11 07:37:53;;;;;;;1.60;1.10;;;12.90;76.10;;;;;;4984099;28;20516;-70
2022/11/11 07:40:40;;;;;;;0.80;0.70;;;12.90;75.80;;;;;;4989196;28;20501;-68
2022/11/11 07:43:27;;;;;;;1.17;1.03;;;12.90;75.90;;;;;;4989763;28;20520;-69
2022/11/11 07:46:14;;;;;;;1.00;0.90;;;12.90;76.20;;;;;;4987892;28;20478;-70
2022/11/11 07:49:01;;;;;;;1.10;1.00;;;12.90;76.00;;;;;;4989451;28;20948;-68
2022/11/11 07:51:50;;;;;;;1.13;1.03;;;12.90;75.50;;;;;;4970312;28;20553;-69
2022/11/11 07:54:37;;;;;;;1.17;0.90;;;12.90;75.70;;;;;;4969254;28;21008;-68
2022/11/11 07:57:26;;;;;;;1.23;1.00;;;12.90;75.70;;;;;;4966249;28;20521;-70
2022/11/11 08:00:14;;;;;;;1.23;0.90;;;12.90;75.40;;;;;;4972670;28;20502;-69
2022/11/11 08:03:01;;;;;;;0.93;0.80;;;12.90;75.70;;;;;;4982653;28;20596;-69
2022/11/11 08:05:55;;;;;;;1.20;0.80;;;12.80;75.70;;;;;;4973074;28;20467;-68
2022/11/11 08:08:44;;;;;;;1.10;0.90;;;12.80;75.40;;;;;;4970111;28;20493;-69
2022/11/11 08:14:37;;;;;;;1.13;1.03;;;12.80;75.40;;;;;;4970515;28;20517;-68
2022/11/11 08:17:24;;;;;;;1.03;0.93;;;12.80;75.40;;;;;;4970904;28;20431;-69
2022/11/11 08:20:12;;;;;;;2.30;0.80;;;12.80;75.30;;;;;;4970128;28;20565;-68
2022/11/11 08:22:59;;;;;;;1.00;0.80;;;12.80;75.40;;;;;;4966274;28;20563;-68
2022/11/11 08:26:08;;;;;;;3.37;1.60;;;12.80;75.70;;;;;;4970355;28;20471;-68
2022/11/11 08:28:55;;;;;;;1.40;1.30;;;12.80;74.30;;;;;;4976639;28;20748;-71
2022/11/11 08:31:43;;;;;;;3.83;0.87;;;12.80;74.60;;;;;;4969575;28;20471;-68
2022/11/11 08:34:30;;;;;;;0.90;0.80;;;12.80;74.80;;;;;;4970050;28;21093;-70
2022/11/11 08:37:17;;;;;;;2.37;1.40;;;12.80;74.80;;;;;;4973265;28;21482;-68
2022/11/11 08:40:04;;;;;;;1.17;0.87;;;12.80;74.70;;;;;;4969744;28;20474;-68
2022/11/11 08:42:56;;;;;;;1.47;1.00;;;12.80;74.90;;;;;;4969178;28;20850;-69
2022/11/11 08:45:43;;;;;;;1.07;0.97;;;12.80;75.00;;;;;;4975715;28;20552;-67
2022/11/11 08:48:31;;;;;;;1.30;0.80;;;12.70;74.90;;;;;;4971460;28;20781;-67
2022/11/11 08:51:18;;;;;;;1.23;0.70;;;12.80;75.10;;;;;;4970359;28;20481;-69
2022/11/11 08:54:05;;;;;;;1.10;1.00;;;12.80;75.00;;;;;;4969378;28;20808;-68
2022/11/11 08:56:53;;;;;;;4.50;1.40;;;12.70;75.00;;;;;;5011424;23;20523;-64
2022/11/11 08:59:41;;;;;;;2.53;1.70;;;12.70;75.00;;;;;;5006391;28;20456;-64
2022/11/11 09:02:28;;;;;;;1.20;1.03;;;12.70;75.20;;;;;;4983348;28;20461;-64
2022/11/11 09:05:15;;;;;;;2.17;1.10;;;12.70;75.10;;;;;;4980789;28;20490;-64
2022/11/11 09:08:02;;;;;;;1.63;1.00;;;12.80;75.20;;;;;;4964522;28;20453;-64
2022/11/11 09:10:49;;;;;;;1.03;0.70;;;12.80;75.20;;;;;;4962358;28;20602;-64
2022/11/11 09:13:36;;;;;;;1.60;0.90;;;12.80;75.40;;;;;;4970390;28;20454;-64
2022/11/11 09:19:29;;;;;;;3.47;0.80;;;12.70;75.20;;;;;;4929939;29;20472;-71
2022/11/11 09:22:16;;;;;;;1.17;1.07;;;12.80;75.50;;;;;;4931194;29;20607;-71
2022/11/11 09:25:03;;;;;;;4.30;0.93;;;12.70;75.40;;;;;;4927584;28;20512;-71
2022/11/11 09:27:57;;;;;;;1.77;1.20;;;12.80;76.10;;;;;;4912311;29;20449;-71
2022/11/11 09:30:44;;;;;;;1.80;1.10;;;12.80;75.70;;;;;;4921727;23;20488;-49
2022/11/11 09:33:31;;;;;;;2.70;1.20;;;12.80;75.70;;;;;;4934321;29;20480;-49
2022/11/11 09:36:38;;;;;;;3.27;1.00;;;12.80;75.80;;;;;;5146294;23;21003;-64
2022/11/11 09:39:25;;;;;;;2.03;1.13;;;12.80;76.00;;;;;;5341145;23;21001;-64
2022/11/11 09:42:21;;;;;;;1.23;1.13;;;12.80;76.00;;;;;;4969930;28;20443;-64
2022/11/11 09:45:18;;;;;;;1.30;1.10;;;12.80;76.10;;;;;;4969931;28;20442;-64
2022/11/11 09:48:25;;;;;;;2.90;1.27;;;12.80;76.00;;;;;;4971037;28;20470;-64
2022/11/11 09:51:19;;;;;;;1.10;1.00;;;12.80;76.10;;;;;;4963935;28;20470;-64
2022/11/11 09:54:13;;;;;;;3.23;1.53;;;12.80;76.40;;;;;;4960826;28;20450;-64
2022/11/11 09:57:14;;;;;;;2.10;1.50;;;12.80;76.50;;;;;;4967081;28;20455;-64
2022/11/11 10:00:06;;;;;;;4.03;1.50;;;12.80;76.60;;;;;;4967336;28;20858;-64
2022/11/11 10:02:57;;;;;;;2.13;1.43;;;12.80;76.80;;;;;;4965729;28;20454;-64
2022/11/11 10:05:49;;;;;;;1.80;1.40;;;12.80;76.80;;;;;;4943604;28;20470;-64
2022/11/11 10:08:42;;;;;;;1.80;1.17;;;12.80;76.80;;;;;;4963378;28;20452;-64
2022/11/11 10:11:43;;;;;;;3.27;1.60;;;12.80;77.00;;;;;;4961833;28;21041;-64
2022/11/11 10:14:36;;;;;;;3.43;1.40;;;12.80;77.00;;;;;;4971116;28;20464;-63
2022/11/11 10:17:34;;;;;;;3.47;1.80;;;12.80;78.00;;;;;;4968766;28;20446;-63
2022/11/11 10:20:25;;;;;;;5.53;2.40;;;12.80;76.90;;;;;;4967596;28;20480;-63
2022/11/11 10:23:15;;;;;;;2.17;1.50;;;12.80;76.80;;;;;;4967183;28;20443;-64
2022/11/11 10:26:07;;;;;;;2.67;2.30;;;12.80;77.10;;;;;;4971121;28;20486;-64
2022/11/11 10:28:56;;;;;;;3.67;2.13;;;12.80;77.20;;;;;;4972082;28;20474;-64
2022/11/11 10:31:44;;;;;;;5.20;2.60;;;12.80;77.20;;;;;;4968179;28;20477;-64
2022/11/11 10:34:34;;;;;;;2.60;2.17;;;12.80;77.30;;;;;;4970888;28;20191;-64
2022/11/11 10:37:24;;;;;;;2.80;2.47;;;12.80;77.30;;;;;;4972795;28;20510;-64
2022/11/11 10:40:18;;;;;;;2.60;2.27;;;12.80;77.30;;;;;;4966932;28;20776;-64
2022/11/11 10:43:05;;;;;;;3.20;1.97;;;12.80;77.30;;;;;;4969390;28;20786;-64
2022/11/11 10:46:02;;;;;;;1.93;1.73;;;12.80;77.30;;;;;;4968116;28;20472;-64
2022/11/11 10:48:55;;;;;;;2.00;1.57;;;12.80;77.30;;;;;;4958338;28;20423;-64
2022/11/11 10:51:47;;;;;;;2.13;1.90;;;12.80;77.10;;;;;;4971762;28;20541;-64
2022/11/11 10:54:38;;;;;;;1.93;1.73;;;12.80;77.20;;;;;;4956250;28;20954;-65
2022/11/11 10:57:35;;;;;;;2.27;1.70;;;12.80;77.10;;;;;;4970163;28;21044;-63
2022/11/11 11:00:22;;;;;;;4.80;2.00;;;12.80;77.40;;;;;;4970196;28;20517;-64
2022/11/11 11:03:21;;;;;;;2.40;1.90;;;12.80;77.60;;;;;;4969579;28;20462;-64
2022/11/11 11:06:12;;;;;;;3.50;2.20;;;12.80;77.50;;;;;;4966428;28;20506;-64
2022/11/11 11:09:08;;;;;;;2.23;2.03;;;12.80;77.50;;;;;;4966051;28;20458;-64
2022/11/11 11:11:59;;;;;;;3.77;1.70;;;12.80;77.80;;;;;;4973978;28;20458;-64
2022/11/11 11:14:51;;;;;;;3.20;1.67;;;12.80;77.40;;;;;;4972119;28;20435;-64
2022/11/11 11:17:42;;;;;;;5.37;1.93;;;12.80;77.50;;;;;;4970412;28;20440;-63
2022/11/11 11:20:30;;;;;;;2.33;1.63;;;12.80;77.50;;;;;;4969994;28;20478;-64
2022/11/11 11:23:36;;;;;;;3.20;1.43;;;12.80;77.70;;;;;;4967724;28;20541;-64
2022/11/11 11:26:22;;;;;;;3.03;1.67;;;12.80;77.70;;;;;;4969811;28;20474;-64
2022/11/11 11:29:09;;;;;;;2.50;1.73;;;12.80;77.70;;;;;;4971865;28;20434;-64
2022/11/11 11:32:10;;;;;;;5.30;1.83;;;12.80;77.80;;;;;;4964160;28;20475;-64
2022/11/11 11:34:57;;;;;;;3.23;2.10;;;12.80;77.50;;;;;;4966277;28;20472;-64
2022/11/11 11:37:52;;;;;;;2.57;1.40;;;12.80;77.60;;;;;;4971380;28;20442;-65
2022/11/11 11:40:51;;;;;;;1.40;1.30;;;12.80;77.60;;;;;;4969818;28;20565;-64
2022/11/11 11:43:39;;;;;;;2.20;2.00;;;12.80;77.50;;;;;;4971600;28;20525;-64
2022/11/11 11:46:29;;;;;;;2.40;1.07;;;12.80;77.60;;;;;;4967527;28;20542;-64
2022/11/11 11:49:31;;;;;;;1.30;1.20;;;12.80;77.60;;;;;;4970127;28;20613;-63
2022/11/11 16:09:33;;;;;;;3.00;1.55;;;12.60;84.40;;;;;;5121098;27;20605;-51
2022/11/11 16:12:26;;;;;;;2.90;1.90;;;12.60;85.90;;;;;;5100656;28;20214;-49
2022/11/11 16:15:21;;;;;;;2.30;1.40;;;12.70;85.90;;;;;;5066239;28;20474;-51
2022/11/11 16:18:14;;;;;;;4.13;2.57;;;12.70;85.90;;;;;;5015695;28;20528;-51
2022/11/11 16:21:06;;;;;;;2.33;1.47;;;12.60;85.80;;;;;;5034328;28;20463;-49
2022/11/11 16:23:54;;;;;;;2.67;1.50;;;12.70;85.90;;;;;;5040495;28;20447;-51
2022/11/11 16:26:43;;;;;;;2.70;2.07;;;12.70;85.90;;;;;;5046907;28;20773;-50
2022/11/11 16:29:35;;;;;;;2.43;1.50;;;12.70;85.90;;;;;;5045974;28;20481;-50
2022/11/11 16:32:35;;;;;;;3.07;1.50;;;12.70;86.00;;;;;;5045383;28;20467;-50
2022/11/11 16:35:29;;;;;;;2.30;1.50;;;12.70;86.00;;;;;;5047692;28;20475;-51
2022/11/11 16:38:31;;;;;;;3.83;2.00;;;12.70;85.80;;;;;;5044009;28;20552;-51
2022/11/11 16:41:26;;;;;;;2.30;1.67;;;12.70;85.90;;;;;;5045854;28;20469;-51
2022/11/11 16:44:34;;;;;;;5.00;1.90;;;12.70;86.00;;;;;;5042742;28;20797;-51
2022/11/11 16:47:44;;;;;;;1.50;1.40;;;12.70;85.70;;;;;;5039610;28;20970;-51
2022/11/11 16:50:32;;;;;;;3.10;1.70;;;12.70;84.80;;;;;;5046523;28;20521;-51
2022/11/11 16:53:32;;;;;;;1.50;1.40;;;12.70;85.30;;;;;;5042988;28;20470;-49
2022/11/11 16:56:25;;;;;;;2.30;1.80;;;12.70;85.20;;;;;;5037579;28;20475;-51
2022/11/11 16:59:15;;;;;;;1.70;1.20;;;12.70;84.90;;;;;;5045049;28;20427;-50
2022/11/11 17:02:03;;;;;;;2.07;1.53;;;12.70;84.70;;;;;;5042185;28;20471;-50
2022/11/11 17:04:52;;;;;;;1.73;1.43;;;12.70;84.50;;;;;;5046975;28;20651;-51
2022/11/11 17:07:41;;;;;;;2.30;1.70;;;12.70;84.20;;;;;;5046485;28;20448;-50
2022/11/11 17:10:29;;;;;;;2.60;1.77;;;12.70;84.20;;;;;;5045328;28;20915;-51
2022/11/11 17:13:16;;;;;;;4.30;2.33;;;12.70;83.90;;;;;;5043263;28;20537;-51
2022/11/11 17:16:07;;;;;;;1.63;1.50;;;12.80;84.10;;;;;;5037907;28;20982;-51
2022/11/11 17:18:56;;;;;;;2.13;1.90;;;12.80;83.90;;;;;;5042253;28;20442;-49
2022/11/11 17:21:43;;;;;;;4.23;2.13;;;12.80;83.80;;;;;;5031217;28;20485;-51
2022/11/11 17:24:30;;;;;;;2.70;1.97;;;12.80;83.80;;;;;;5027342;28;20448;-50
2022/11/11 17:27:17;;;;;;;1.43;1.33;;;12.70;83.60;;;;;;5033413;28;20927;-50
2022/11/11 17:30:06;;;;;;;1.80;1.70;;;12.70;83.50;;;;;;5030116;28;20448;-50
2022/11/11 17:32:54;;;;;;;1.97;1.50;;;12.80;83.40;;;;;;5025708;28;20460;-51
2022/11/11 17:35:50;;;;;;;2.97;1.93;;;12.70;83.20;;;;;;5032878;28;20439;-50
2022/11/11 17:38:38;;;;;;;2.20;1.47;;;12.70;82.90;;;;;;5030010;28;20451;-51
2022/11/11 17:41:28;;;;;;;4.73;1.40;;;12.80;83.10;;;;;;5032301;28;20468;-51
2022/11/11 17:44:18;;;;;;;1.93;1.63;;;12.70;82.80;;;;;;5033057;28;20515;-49
2022/11/11 17:47:05;;;;;;;2.43;1.30;;;12.80;83.00;;;;;;5024423;28;20466;-49
2022/11/11 17:49:53;;;;;;;2.30;1.20;;;12.80;82.90;;;;;;5031020;28;20467;-50
2022/11/11 17:52:44;;;;;;;1.63;1.20;;;12.70;82.90;;;;;;5032637;28;21197;-50
2022/11/11 17:55:33;;;;;;;1.93;1.50;;;12.80;82.90;;;;;;5030567;28;20554;-50
2022/11/11 17:58:20;;;;;;;2.60;1.30;;;12.80;82.80;;;;;;5032091;28;20460;-52
2022/11/11 18:01:08;;;;;;;2.60;1.83;;;12.80;82.80;;;;;;5031587;28;20490;-50
2022/11/11 18:03:57;;;;;;;1.90;1.30;;;12.80;82.60;;;;;;5030638;28;20939;-52
2022/11/11 18:06:44;;;;;;;2.40;1.43;;;12.80;82.80;;;;;;5004853;28;20492;-49
2022/11/11 18:09:33;;;;;;;2.20;1.70;;;12.80;82.30;;;;;;5007921;28;20484;-50
2022/11/11 18:12:20;;;;;;;2.23;1.57;;;12.80;81.50;;;;;;5012123;28;20441;-51
2022/11/11 18:15:08;;;;;;;2.10;1.50;;;12.80;81.90;;;;;;5010979;28;20444;-49
2022/11/11 18:17:56;;;;;;;1.83;1.67;;;12.80;81.90;;;;;;5008366;28;20606;-50
2022/11/11 18:20:42;;;;;;;3.20;3.00;;;12.80;81.40;;;;;;5014108;28;21069;-51
2022/11/11 18:23:31;;;;;;;3.23;1.83;;;12.80;80.70;;;;;;5026857;28;20567;-49
2022/11/11 18:26:21;;;;;;;1.93;1.40;;;12.70;80.30;;;;;;5030436;28;20770;-52
2022/11/11 18:29:09;;;;;;;1.63;1.40;;;12.70;81.00;;;;;;5018556;28;20460;-51
2022/11/11 18:31:56;;;;;;;1.43;1.30;;;12.70;81.00;;;;;;5001132;28;20477;-51
2022/11/11 18:34:43;;;;;;;2.30;1.63;;;12.80;81.10;;;;;;5011969;28;20433;-50
2022/11/11 18:37:30;;;;;;;1.83;1.40;;;12.80;81.10;;;;;;5011993;28;20902;-51
2022/11/11 18:40:17;;;;;;;2.47;1.70;;;12.80;80.90;;;;;;5014807;28;20468;-49
2022/11/11 18:43:05;;;;;;;2.20;1.97;;;12.70;80.40;;;;;;5025989;28;20982;-50
2022/11/11 18:45:53;;;;;;;4.53;1.97;;;12.70;80.10;;;;;;5024345;28;21013;-50
2022/11/11 18:48:41;;;;;;;1.77;1.67;;;12.70;79.10;;;;;;5030423;28;20566;-51
2022/11/11 18:51:29;;;;;;;1.70;1.30;;;12.70;79.30;;;;;;5030814;28;20467;-50
2022/11/11 18:54:17;;;;;;;1.70;1.60;;;12.70;78.90;;;;;;5027783;28;20436;-50
2022/11/11 18:57:04;;;;;;;2.90;2.10;;;12.70;78.60;;;;;;5031202;28;20860;-51
2022/11/11 18:59:53;;;;;;;1.93;1.30;;;12.70;79.00;;;;;;5031407;28;20569;-51
2022/11/11 19:02:40;;;;;;;3.83;1.43;;;12.70;78.90;;;;;;5025627;28;20487;-51
2022/11/11 19:05:27;;;;;;;1.70;1.60;;;12.70;79.30;;;;;;5030526;28;20475;-52
2022/11/11 19:08:16;;;;;;;2.00;1.30;;;12.60;78.40;;;;;;5024572;28;20522;-50
2022/11/11 19:11:04;;;;;;;1.17;1.00;;;12.60;77.70;;;;;;5028833;28;20459;-51
2022/11/11 19:13:51;;;;;;;1.50;1.40;;;12.60;77.50;;;;;;5023446;28;20468;-49
2022/11/11 19:16:40;;;;;;;1.60;1.20;;;12.60;76.90;;;;;;5020642;28;20468;-51
2022/11/11 19:19:28;;;;;;;1.93;1.83;;;12.60;77.10;;;;;;5028389;28;20440;-49
2022/11/11 19:22:15;;;;;;;2.50;1.80;;;12.60;76.60;;;;;;5027733;28;20549;-52
2022/11/11 19:25:05;;;;;;;3.87;2.17;;;12.60;76.80;;;;;;5027370;28;20978;-51
2022/11/11 19:27:53;;;;;;;1.67;1.57;;;12.60;75.80;;;;;;5024226;28;20825;-51
2022/11/11 19:30:40;;;;;;;2.57;2.10;;;12.60;75.20;;;;;;5028979;28;20470;-51
2022/11/11 19:33:28;;;;;;;2.37;1.53;;;12.60;75.20;;;;;;5026534;28;20459;-51
2022/11/11 19:36:18;;;;;;;2.47;1.80;;;12.60;76.00;;;;;;5011939;28;20547;-51
2022/11/11 19:39:05;;;;;;;1.70;1.60;;;12.60;76.60;;;;;;5007212;28;20984;-51
2022/11/11 19:41:52;;;;;;;1.80;1.70;;;12.70;76.80;;;;;;5029650;28;20534;-51
2022/11/11 19:44:39;;;;;;;3.30;2.17;;;12.70;77.20;;;;;;5030377;28;20510;-51
2022/11/11 19:47:27;;;;;;;1.60;1.50;;;12.70;77.40;;;;;;5029188;28;20578;-52
2022/11/11 19:50:17;;;;;;;2.60;1.80;;;12.70;77.70;;;;;;5023673;28;20849;-50
2022/11/11 19:53:04;;;;;;;2.70;2.47;;;12.70;75.50;;;;;;5004156;28;20471;-49
2022/11/11 19:55:58;;;;;;;2.60;2.03;;;12.60;75.30;;;;;;5003493;28;20909;-51
2022/11/11 19:58:46;;;;;;;2.13;1.93;;;12.60;75.50;;;;;;5003224;28;20441;-49
2022/11/11 20:01:35;;;;;;;2.70;2.03;;;12.60;75.70;;;;;;5006208;28;20477;-50
2022/11/11 20:04:25;;;;;;;2.00;1.80;;;12.60;77.60;;;;;;5008082;28;20533;-51
2022/11/11 20:07:13;;;;;;;1.87;1.47;;;12.60;76.90;;;;;;5009542;28;20457;-51
2022/11/11 20:10:01;;;;;;;1.50;1.40;;;12.60;78.00;;;;;;4999591;28;20814;-50
2022/11/11 20:12:50;;;;;;;1.50;1.40;;;12.70;78.80;;;;;;5014831;28;20990;-51
2022/11/11 20:15:37;;;;;;;1.27;1.17;;;12.70;79.00;;;;;;5015303;28;20436;-52
2022/11/11 20:18:24;;;;;;;1.77;1.40;;;12.70;79.30;;;;;;5011194;28;20455;-49
2022/11/11 20:21:12;;;;;;;1.53;1.33;;;12.70;80.50;;;;;;5018830;28;20469;-52
2022/11/11 20:24:01;;;;;;;2.97;1.83;;;12.70;79.30;;;;;;4999254;28;20809;-51
2022/11/11 20:26:48;;;;;;;1.83;1.40;;;12.70;79.40;;;;;;4999478;28;20635;-51